Time;durP1;ratioP1;P1;durP2;ratioP2;P2;SDS_P1;SDS_P2;PMS_P1;PMS_P2;Temp;Humidity;BMP_temperature;BMP_pressure;BME280_temperature;BME280_humidity;BME280_pressure;Samples;Min_cycle;Max_cycle;Signal;HPM_P1;HPM_P2
2022/10/07 00:01:52;;;;;;;10.73;3.65;;;10.30;99.90;;;;;;5056489;28;20044;-56
2022/10/07 00:04:18;;;;;;;9.88;3.25;;;10.30;99.90;;;;;;5057464;28;20044;-54
2022/10/07 00:06:44;;;;;;;9.45;3.20;;;10.30;99.90;;;;;;5059783;28;20060;-54
2022/10/07 00:09:10;;;;;;;11.32;3.45;;;10.30;99.90;;;;;;5053010;28;20115;-53
2022/10/07 00:11:36;;;;;;;7.90;3.70;;;10.30;99.90;;;;;;5059115;28;20477;-54
2022/10/07 00:14:03;;;;;;;14.48;3.03;;;10.30;99.90;;;;;;5052014;28;20033;-52
2022/10/07 00:16:32;;;;;;;10.23;3.50;;;10.20;99.90;;;;;;5060112;28;20162;-52
2022/10/07 00:19:00;;;;;;;16.25;3.70;;;10.20;99.90;;;;;;5053533;28;20037;-54
2022/10/07 00:21:28;;;;;;;24.33;4.60;;;10.20;99.90;;;;;;5062076;28;20050;-52
2022/10/07 00:23:53;;;;;;;8.38;3.72;;;10.20;99.90;;;;;;5065251;28;20406;-55
2022/10/07 00:26:21;;;;;;;6.75;3.05;;;10.10;99.90;;;;;;5060819;28;20044;-54
2022/10/07 00:28:47;;;;;;;9.32;3.55;;;10.10;99.90;;;;;;5057330;28;20041;-54
2022/10/07 00:31:16;;;;;;;8.65;3.55;;;10.10;99.90;;;;;;5060337;28;20037;-52
2022/10/07 00:33:42;;;;;;;8.50;2.60;;;10.10;99.90;;;;;;5052221;28;20124;-51
2022/10/07 00:36:19;;;;;;;8.85;3.55;;;10.20;99.90;;;;;;5060568;28;20036;-52
2022/10/07 00:38:54;;;;;;;6.53;2.50;;;10.10;99.90;;;;;;5053571;28;20036;-54
2022/10/07 00:41:24;;;;;;;9.48;2.90;;;10.10;99.90;;;;;;5059364;28;20044;-55
2022/10/07 00:43:49;;;;;;;13.10;3.45;;;10.10;99.90;;;;;;5072011;28;20044;-52
2022/10/07 00:46:21;;;;;;;9.25;3.00;;;10.20;99.90;;;;;;5065849;28;20071;-52
2022/10/07 00:48:48;;;;;;;11.65;3.92;;;10.20;99.90;;;;;;5069711;28;20393;-53
2022/10/07 00:51:16;;;;;;;;;;;10.10;99.90;;;;;;5068846;28;20128;-53
2022/10/07 00:53:46;;;;;;;10.73;2.95;;;10.20;99.90;;;;;;5056753;28;20392;-54
2022/10/07 00:56:14;;;;;;;15.60;3.33;;;10.20;99.90;;;;;;5057174;28;20524;-54
2022/10/07 00:58:42;;;;;;;12.68;3.67;;;10.20;99.90;;;;;;5072045;28;20032;-52
2022/10/07 01:01:08;;;;;;;11.77;3.45;;;10.20;99.90;;;;;;5057352;28;20119;-52
2022/10/07 01:03:34;;;;;;;7.10;2.40;;;10.20;99.90;;;;;;5065258;28;20040;-54
2022/10/07 01:06:02;;;;;;;12.10;2.83;;;10.20;99.90;;;;;;5053500;28;20072;-52
2022/10/07 01:08:28;;;;;;;9.73;2.80;;;10.20;99.90;;;;;;5052055;28;20039;-53
2022/10/07 01:11:17;;;;;;;15.98;3.28;;;10.20;99.90;;;;;;5061840;28;20494;-53
2022/10/07 01:13:59;;;;;;;7.30;3.03;;;10.20;99.90;;;;;;5071018;28;20041;-55
2022/10/07 01:16:31;;;;;;;15.13;3.38;;;10.20;99.90;;;;;;5070630;28;20040;-55
2022/10/07 01:19:30;;;;;;;9.05;3.20;;;10.20;99.90;;;;;;5057170;28;20398;-52
2022/10/07 01:22:27;;;;;;;13.88;4.55;;;10.20;99.90;;;;;;5061281;28;20040;-53
2022/10/07 01:25:01;;;;;;;9.95;3.20;;;10.20;99.90;;;;;;5070291;28;20055;-52
2022/10/07 01:27:28;;;;;;;15.13;3.20;;;10.10;99.90;;;;;;5059384;28;20039;-54
2022/10/07 01:30:03;;;;;;;14.45;3.95;;;10.10;99.90;;;;;;5051387;28;20090;-53
2022/10/07 01:32:48;;;;;;;9.77;3.10;;;10.00;99.90;;;;;;5061073;28;20041;-54
2022/10/07 01:35:17;;;;;;;10.75;3.08;;;10.00;99.90;;;;;;5055292;28;20045;-54
2022/10/07 01:37:53;;;;;;;8.60;3.45;;;10.00;99.90;;;;;;5062502;28;20048;-53
2022/10/07 01:40:22;;;;;;;15.73;3.53;;;10.00;99.90;;;;;;5051555;28;20044;-55
2022/10/07 01:42:50;;;;;;;8.85;2.92;;;10.00;99.90;;;;;;5066732;28;20123;-56
2022/10/07 01:45:20;;;;;;;9.68;3.40;;;9.90;99.90;;;;;;5069864;28;20068;-52
2022/10/07 01:47:50;;;;;;;16.58;3.13;;;9.90;99.90;;;;;;5057699;28;20041;-55
2022/10/07 01:50:17;;;;;;;10.02;3.35;;;9.90;99.90;;;;;;5049760;28;20098;-51
2022/10/07 01:53:02;;;;;;;15.73;4.22;;;9.80;99.90;;;;;;5052684;28;20069;-52
2022/10/07 01:56:00;;;;;;;9.30;3.55;;;9.90;99.90;;;;;;5053038;28;20053;-51
2022/10/07 01:58:53;;;;;;;12.55;2.92;;;9.80;99.90;;;;;;5053718;28;20469;-54
2022/10/07 02:01:31;;;;;;;10.68;3.63;;;9.70;99.90;;;;;;5058835;28;20230;-52
2022/10/07 02:04:05;;;;;;;8.43;3.10;;;9.70;99.90;;;;;;5061210;28;20040;-55
2022/10/07 02:07:04;;;;;;;12.68;3.90;;;9.70;99.90;;;;;;5068752;28;20344;-54
2022/10/07 02:09:36;;;;;;;7.22;3.55;;;9.70;99.90;;;;;;5062436;28;20098;-52
2022/10/07 02:12:22;;;;;;;10.43;4.25;;;9.70;99.90;;;;;;5065492;28;20065;-52
2022/10/07 02:14:53;;;;;;;7.90;3.72;;;9.70;99.90;;;;;;5049663;28;20481;-54
2022/10/07 02:17:23;;;;;;;12.20;3.33;;;9.70;99.90;;;;;;5058963;28;20055;-55
2022/10/07 02:19:52;;;;;;;10.43;3.47;;;9.60;99.90;;;;;;5070252;28;20115;-55
2022/10/07 02:22:20;;;;;;;13.32;3.97;;;9.60;99.90;;;;;;5059023;28;20029;-52
2022/10/07 02:24:49;;;;;;;12.65;4.05;;;9.60;99.90;;;;;;5050146;28;20069;-55
2022/10/07 02:27:21;;;;;;;20.85;3.47;;;9.60;99.90;;;;;;5061295;28;20036;-53
2022/10/07 02:29:48;;;;;;;16.13;4.05;;;9.60;99.90;;;;;;5051010;28;20048;-56
2022/10/07 02:32:18;;;;;;;18.48;3.90;;;9.60;99.90;;;;;;5052094;28;20029;-54
2022/10/07 02:34:51;;;;;;;11.18;3.63;;;9.60;99.90;;;;;;5051486;28;20037;-55
2022/10/07 02:37:23;;;;;;;13.65;3.28;;;9.60;99.90;;;;;;5050677;28;20094;-53
2022/10/07 02:39:50;;;;;;;17.45;3.58;;;9.60;99.90;;;;;;5055643;28;20051;-55
2022/10/07 02:42:25;;;;;;;14.10;4.15;;;9.60;99.90;;;;;;5067532;28;20524;-55
2022/10/07 02:44:50;;;;;;;14.95;4.03;;;9.60;99.90;;;;;;5050145;28;20052;-54
2022/10/07 02:47:30;;;;;;;9.83;3.27;;;9.70;99.90;;;;;;5050842;28;20036;-55
2022/10/07 02:50:00;;;;;;;14.35;4.05;;;9.60;99.90;;;;;;5067790;28;20107;-53
2022/10/07 02:52:31;;;;;;;12.25;3.53;;;9.70;99.90;;;;;;5055351;28;20035;-54
2022/10/07 02:55:00;;;;;;;14.52;4.00;;;9.60;99.90;;;;;;5068536;28;20051;-55
2022/10/07 02:57:30;;;;;;;19.13;3.97;;;9.60;99.90;;;;;;5067345;28;20453;-52
2022/10/07 02:59:57;;;;;;;21.70;3.83;;;9.60;99.90;;;;;;5069403;28;20455;-52
2022/10/07 03:02:30;;;;;;;21.65;3.80;;;9.60;99.90;;;;;;5055723;28;20048;-54
2022/10/07 03:04:58;;;;;;;16.95;4.10;;;9.60;99.90;;;;;;5052210;28;20080;-55
2022/10/07 03:07:25;;;;;;;14.85;4.20;;;9.60;99.90;;;;;;5063984;28;20413;-52
2022/10/07 03:09:51;;;;;;;14.48;3.53;;;9.60;99.90;;;;;;5061986;28;20040;-56
2022/10/07 03:12:17;;;;;;;;;;;9.60;99.90;;;;;;5063044;28;20037;-53
2022/10/07 03:14:43;;;;;;;15.93;3.92;;;9.60;99.90;;;;;;5056219;28;20332;-54
2022/10/07 03:17:09;;;;;;;;;;;9.60;99.90;;;;;;5059895;28;20053;-52
2022/10/07 03:19:35;;;;;;;15.05;4.13;;;9.60;99.90;;;;;;5049955;28;19917;-55
2022/10/07 03:22:01;;;;;;;14.80;3.83;;;9.60;99.90;;;;;;5058435;28;20032;-53
2022/10/07 03:24:27;;;;;;;20.27;4.03;;;9.60;99.90;;;;;;5067599;28;20048;-54
2022/10/07 03:26:52;;;;;;;18.07;4.20;;;9.60;99.90;;;;;;5062025;28;20494;-55
2022/10/07 03:29:18;;;;;;;15.37;4.17;;;9.60;99.90;;;;;;5063128;28;20698;-54
2022/10/07 03:31:44;;;;;;;9.15;3.83;;;9.70;99.90;;;;;;5066415;28;20116;-52
2022/10/07 03:34:09;;;;;;;18.13;4.90;;;9.60;99.90;;;;;;5069615;28;20045;-53
2022/10/07 03:36:35;;;;;;;11.27;3.83;;;9.60;99.90;;;;;;5064854;28;20321;-54
2022/10/07 03:39:02;;;;;;;10.57;3.92;;;9.60;99.90;;;;;;5061701;28;20279;-55
2022/10/07 03:41:28;;;;;;;19.80;4.45;;;9.60;99.90;;;;;;5066602;28;20100;-54
2022/10/07 03:43:56;;;;;;;17.23;4.70;;;9.60;99.90;;;;;;5050376;28;20041;-55
2022/10/07 03:46:22;;;;;;;14.45;4.07;;;9.60;99.90;;;;;;5054645;28;20040;-53
2022/10/07 03:48:47;;;;;;;13.23;3.58;;;9.60;99.90;;;;;;5049947;28;20120;-54
2022/10/07 03:51:13;;;;;;;20.23;4.23;;;9.60;99.90;;;;;;5048206;28;20453;-52
2022/10/07 03:53:39;;;;;;;10.43;4.10;;;9.60;99.90;;;;;;5064997;28;20102;-54
2022/10/07 03:56:05;;;;;;;13.65;3.80;;;9.60;99.90;;;;;;5058286;28;20314;-54
2022/10/07 03:58:31;;;;;;;11.82;3.15;;;9.60;99.90;;;;;;5050862;28;20517;-54
2022/10/07 04:01:08;;;;;;;18.60;5.40;;;9.60;99.90;;;;;;5058688;28;20048;-52
2022/10/07 04:03:33;;;;;;;21.63;5.25;;;9.60;99.90;;;;;;5056557;28;20033;-55
2022/10/07 04:05:59;;;;;;;12.77;3.93;;;9.60;99.90;;;;;;5072846;28;20086;-54
2022/10/07 04:08:27;;;;;;;16.92;5.32;;;9.60;99.90;;;;;;5058673;28;20036;-55
2022/10/07 04:10:53;;;;;;;14.38;4.90;;;9.60;99.90;;;;;;5054296;28;20053;-55
2022/10/07 04:13:18;;;;;;;17.45;4.25;;;9.60;99.90;;;;;;5059643;28;20037;-53
2022/10/07 04:15:44;;;;;;;16.98;4.38;;;9.60;99.90;;;;;;5054650;28;20502;-54
2022/10/07 04:18:10;;;;;;;17.70;4.53;;;9.60;99.90;;;;;;5058925;28;20076;-53
2022/10/07 04:20:39;;;;;;;16.55;4.25;;;9.60;99.90;;;;;;5068753;28;20055;-55
2022/10/07 04:23:04;;;;;;;21.90;4.50;;;9.60;99.90;;;;;;5061848;28;20436;-53
2022/10/07 04:25:33;;;;;;;24.63;5.27;;;9.60;99.90;;;;;;5052805;28;20048;-54
2022/10/07 04:28:04;;;;;;;15.93;4.45;;;9.60;99.90;;;;;;5057984;28;20037;-55
2022/10/07 04:30:32;;;;;;;18.38;3.67;;;9.60;99.90;;;;;;5053023;28;20040;-51
2022/10/07 04:32:58;;;;;;;17.42;4.78;;;9.60;99.90;;;;;;5067215;28;20045;-54
2022/10/07 04:35:24;;;;;;;18.10;4.68;;;9.60;99.90;;;;;;5072371;28;20060;-52
2022/10/07 04:37:50;;;;;;;17.50;5.32;;;9.60;99.90;;;;;;5054138;28;20528;-52
2022/10/07 04:40:18;;;;;;;20.58;5.43;;;9.60;99.90;;;;;;5062217;28;20041;-54
2022/10/07 04:45:28;;;;;;;19.30;3.67;;;9.60;99.90;;;;;;5055737;28;20477;-52
2022/10/07 04:47:53;;;;;;;25.13;5.57;;;9.60;99.90;;;;;;5056494;28;20108;-54
2022/10/07 04:50:19;;;;;;;15.83;3.77;;;9.60;99.90;;;;;;5065712;28;20060;-54
2022/10/07 04:52:45;;;;;;;20.73;5.30;;;9.50;99.90;;;;;;5068667;28;20494;-52
2022/10/07 04:55:12;;;;;;;18.98;4.85;;;9.60;99.90;;;;;;5068076;28;20298;-55
2022/10/07 04:57:38;;;;;;;22.20;4.72;;;9.50;99.90;;;;;;5070318;28;20044;-55
2022/10/07 05:00:04;;;;;;;15.43;4.30;;;9.50;99.90;;;;;;5053113;28;20041;-53
2022/10/07 05:02:30;;;;;;;14.57;4.50;;;9.50;99.90;;;;;;5052430;28;20037;-53
2022/10/07 05:04:56;;;;;;;18.73;4.50;;;9.50;99.90;;;;;;5052566;28;20064;-54
2022/10/07 05:07:21;;;;;;;22.90;4.78;;;9.50;99.90;;;;;;5052272;28;20072;-53
2022/10/07 05:09:47;;;;;;;20.10;5.13;;;9.50;99.90;;;;;;5069373;28;20394;-56
2022/10/07 05:12:12;;;;;;;24.63;5.25;;;9.40;99.90;;;;;;5054174;28;20493;-54
2022/10/07 05:14:41;;;;;;;23.73;5.67;;;9.40;99.90;;;;;;5062882;28;20032;-55
2022/10/07 05:17:07;;;;;;;14.80;4.47;;;9.40;99.90;;;;;;5059683;28;20044;-54
2022/10/07 05:19:34;;;;;;;14.93;5.07;;;9.40;99.90;;;;;;5061488;28;20033;-53
2022/10/07 05:21:59;;;;;;;;;;;9.40;99.90;;;;;;5064034;28;20040;-55
2022/10/07 05:24:24;;;;;;;21.02;5.38;;;9.40;99.90;;;;;;5070838;28;19916;-55
2022/10/07 05:26:50;;;;;;;21.83;4.47;;;9.40;99.90;;;;;;5069271;28;20513;-51
2022/10/07 05:29:16;;;;;;;17.77;4.53;;;9.30;99.90;;;;;;5052864;28;20060;-54
2022/10/07 05:31:41;;;;;;;14.47;5.43;;;9.30;99.90;;;;;;5061628;28;20067;-54
2022/10/07 05:34:07;;;;;;;21.10;5.13;;;9.30;99.90;;;;;;5065699;28;20033;-53
2022/10/07 05:36:33;;;;;;;18.53;4.80;;;9.30;99.90;;;;;;5064359;28;20140;-52
2022/10/07 05:38:59;;;;;;;21.90;4.97;;;9.30;99.90;;;;;;5070933;28;20138;-52
2022/10/07 05:41:27;;;;;;;20.17;5.60;;;9.30;99.90;;;;;;5052280;28;20417;-54
2022/10/07 05:43:53;;;;;;;21.55;4.95;;;9.30;99.90;;;;;;5069656;28;20052;-54
2022/10/07 05:46:19;;;;;;;14.80;4.05;;;9.30;99.90;;;;;;5071303;28;20045;-53
2022/10/07 05:48:47;;;;;;;23.92;6.38;;;9.30;99.90;;;;;;5070927;28;20551;-55
2022/10/07 05:51:13;;;;;;;13.93;4.25;;;9.40;99.90;;;;;;5085318;28;20123;-54
2022/10/07 05:53:40;;;;;;;18.85;5.55;;;9.40;99.90;;;;;;5070118;28;20140;-54
2022/10/07 05:56:07;;;;;;;22.92;5.55;;;9.40;99.90;;;;;;5072893;28;20051;-52
2022/10/07 05:58:34;;;;;;;22.80;5.40;;;9.40;99.90;;;;;;5070483;28;20513;-54
2022/10/07 06:01:01;;;;;;;17.27;4.53;;;9.40;99.90;;;;;;5070757;28;20036;-53
2022/10/07 06:03:27;;;;;;;18.98;4.32;;;9.50;99.90;;;;;;5063650;28;20045;-54
2022/10/07 06:05:54;;;;;;;13.27;4.35;;;9.60;99.90;;;;;;5089249;28;20044;-54
2022/10/07 06:08:21;;;;;;;21.50;5.18;;;9.60;99.90;;;;;;5077901;28;20040;-53
2022/10/07 06:13:52;;;;;;;20.10;9.10;;;9.90;99.90;;;;;;5056172;28;20074;-56
2022/10/07 06:16:19;;;;;;;16.40;7.50;;;10.00;99.90;;;;;;5069344;28;20156;-54
2022/10/07 06:18:45;;;;;;;19.27;7.28;;;10.20;99.90;;;;;;5055822;28;20041;-54
2022/10/07 06:21:11;;;;;;;16.65;5.22;;;10.40;99.90;;;;;;5070419;28;20056;-54
2022/10/07 06:23:37;;;;;;;13.25;4.40;;;10.50;99.90;;;;;;5064413;28;20547;-52
2022/10/07 06:26:04;;;;;;;;;;;10.70;99.90;;;;;;5058537;28;20131;-56
2022/10/07 06:28:38;;;;;;;20.08;4.00;;;10.90;99.90;;;;;;5064955;28;19970;-53
2022/10/07 06:31:05;;;;;;;18.33;4.55;;;11.10;99.90;;;;;;5069130;28;20032;-54
2022/10/07 06:33:31;;;;;;;19.63;4.60;;;11.20;99.90;;;;;;5065853;28;20406;-55
2022/10/07 06:36:00;;;;;;;16.17;3.08;;;11.20;99.90;;;;;;5054674;28;20039;-53
2022/10/07 06:38:25;;;;;;;15.25;3.25;;;11.10;99.90;;;;;;5069563;28;20060;-54
2022/10/07 06:40:58;;;;;;;22.97;3.63;;;11.00;99.90;;;;;;5064842;28;20040;-54
2022/10/07 06:43:25;;;;;;;14.65;3.58;;;11.10;99.90;;;;;;5066835;28;20131;-55
2022/10/07 06:45:51;;;;;;;11.68;2.92;;;11.40;99.90;;;;;;5050014;28;20048;-54
2022/10/07 06:48:18;;;;;;;13.90;3.17;;;11.70;99.90;;;;;;5051158;28;20045;-56
2022/10/07 06:50:54;;;;;;;16.08;3.65;;;12.00;99.90;;;;;;5059227;28;20452;-52
2022/10/07 06:53:20;;;;;;;19.85;3.95;;;12.30;99.90;;;;;;5067054;28;20060;-52
2022/10/07 06:55:46;;;;;;;19.73;3.72;;;12.60;99.90;;;;;;5053249;28;20486;-51
2022/10/07 06:58:12;;;;;;;19.35;3.55;;;12.60;99.90;;;;;;5062680;28;20037;-53
2022/10/07 07:00:38;;;;;;;24.17;5.30;;;12.50;99.90;;;;;;5054980;28;20069;-52
2022/10/07 07:03:03;;;;;;;14.77;3.67;;;12.30;99.90;;;;;;5058198;28;20041;-52
2022/10/07 07:05:37;;;;;;;17.93;3.23;;;12.10;99.90;;;;;;5064244;28;20110;-53
2022/10/07 07:08:03;;;;;;;9.10;2.63;;;12.00;99.90;;;;;;5067108;28;20036;-52
2022/10/07 07:10:29;;;;;;;20.90;3.78;;;11.80;99.90;;;;;;5060592;28;20035;-51
2022/10/07 07:12:55;;;;;;;16.23;4.03;;;11.70;99.90;;;;;;5063308;28;20038;-53
2022/10/07 07:15:21;;;;;;;13.68;4.35;;;11.70;99.90;;;;;;5052965;28;20094;-53
2022/10/07 07:17:47;;;;;;;10.70;2.88;;;11.70;99.90;;;;;;5059863;28;20091;-52
2022/10/07 07:20:13;;;;;;;13.27;3.67;;;11.70;99.90;;;;;;5057358;28;20085;-54
2022/10/07 07:22:39;;;;;;;17.52;3.97;;;11.80;99.90;;;;;;5065834;28;20094;-52
2022/10/07 07:25:05;;;;;;;;;;;11.80;99.90;;;;;;5055882;28;20041;-54
2022/10/07 07:27:31;;;;;;;18.60;3.67;;;11.80;99.90;;;;;;5051121;28;19924;-52
2022/10/07 07:29:57;;;;;;;14.48;3.25;;;11.80;99.90;;;;;;5057585;28;20036;-52
2022/10/07 07:32:23;;;;;;;12.07;3.33;;;11.90;99.90;;;;;;5057740;28;20486;-53
2022/10/07 07:34:49;;;;;;;13.32;2.65;;;11.90;99.90;;;;;;5048236;28;20047;-55
2022/10/07 07:37:16;;;;;;;21.73;4.27;;;11.90;99.90;;;;;;5067136;28;20035;-53
2022/10/07 07:39:41;;;;;;;22.52;4.03;;;12.00;99.90;;;;;;5057683;28;20028;-54
2022/10/07 07:42:07;;;;;;;12.52;3.28;;;12.10;99.90;;;;;;5059220;28;20051;-53
2022/10/07 07:44:35;;;;;;;14.68;2.78;;;12.10;99.90;;;;;;5055122;28;20068;-52
2022/10/07 07:47:01;;;;;;;19.17;3.72;;;12.00;99.90;;;;;;5054203;28;20036;-52
2022/10/07 07:49:30;;;;;;;17.17;4.05;;;12.00;99.90;;;;;;5058531;28;20035;-53
2022/10/07 07:51:56;;;;;;;16.98;2.97;;;12.10;99.90;;;;;;5058235;28;20033;-56
2022/10/07 07:54:23;;;;;;;12.75;2.47;;;12.10;99.90;;;;;;5055196;28;20033;-55
2022/10/07 07:56:49;;;;;;;8.50;2.75;;;12.10;99.90;;;;;;5052399;28;20045;-54
2022/10/07 07:59:15;;;;;;;16.43;3.20;;;12.10;99.90;;;;;;5059526;28;20520;-55
2022/10/07 08:01:43;;;;;;;18.23;2.67;;;12.10;99.90;;;;;;5060016;28;20120;-56
2022/10/07 08:04:08;;;;;;;20.30;4.07;;;12.20;99.90;;;;;;5054826;28;21030;-55
2022/10/07 08:06:34;;;;;;;15.18;3.17;;;12.30;99.90;;;;;;5052458;28;20044;-55
2022/10/07 08:08:59;;;;;;;15.23;3.27;;;12.30;99.90;;;;;;5050255;28;20033;-55
2022/10/07 08:11:26;;;;;;;13.00;3.73;;;12.30;99.90;;;;;;5050934;28;20041;-55
2022/10/07 08:13:54;;;;;;;13.73;3.10;;;12.30;99.90;;;;;;5061968;28;20302;-56
2022/10/07 08:16:22;;;;;;;15.15;3.00;;;12.30;99.90;;;;;;5060944;28;20045;-54
2022/10/07 08:18:49;;;;;;;18.05;3.90;;;12.40;99.90;;;;;;5061523;28;20044;-53
2022/10/07 08:21:18;;;;;;;10.68;2.58;;;12.60;99.90;;;;;;5065620;28;20107;-56
2022/10/07 08:23:46;;;;;;;12.93;2.55;;;12.70;99.90;;;;;;5064338;28;20423;-54
2022/10/07 08:26:13;;;;;;;18.42;3.35;;;13.00;99.90;;;;;;5056072;28;20569;-54
2022/10/07 08:28:39;;;;;;;13.18;3.80;;;13.10;99.90;;;;;;5066201;28;20464;-56
2022/10/07 08:31:11;;;;;;;18.15;3.30;;;13.30;99.90;;;;;;5055251;28;20040;-56
2022/10/07 08:33:39;;;;;;;20.55;2.65;;;13.30;99.90;;;;;;5057623;28;20397;-54
2022/10/07 08:36:07;;;;;;;15.10;3.38;;;13.40;99.90;;;;;;5055781;28;20056;-55
2022/10/07 08:38:35;;;;;;;9.63;2.75;;;13.40;99.90;;;;;;5061690;28;20033;-56
2022/10/07 08:41:14;;;;;;;16.85;3.08;;;13.40;99.90;;;;;;5062019;28;20051;-57
2022/10/07 08:43:45;;;;;;;20.17;3.47;;;13.40;99.90;;;;;;5054351;28;20083;-55
2022/10/07 08:46:18;;;;;;;14.63;4.03;;;13.40;99.90;;;;;;5059460;28;20036;-53
2022/10/07 08:48:51;;;;;;;12.70;2.80;;;13.30;99.90;;;;;;5057842;28;20450;-55
2022/10/07 08:51:19;;;;;;;17.45;3.65;;;13.40;99.90;;;;;;5069367;28;20036;-53
2022/10/07 08:53:49;;;;;;;13.25;2.97;;;13.50;99.90;;;;;;5061678;28;20041;-55
2022/10/07 08:56:18;;;;;;;22.52;3.92;;;13.60;99.90;;;;;;5063846;28;20043;-53
2022/10/07 08:59:12;;;;;;;15.00;2.65;;;13.60;99.90;;;;;;5070417;28;20044;-56
2022/10/07 09:01:57;;;;;;;14.05;2.97;;;13.70;99.90;;;;;;5064297;28;20568;-56
2022/10/07 09:04:32;;;;;;;21.25;2.75;;;13.80;99.90;;;;;;5068082;28;20066;-54
2022/10/07 09:07:02;;;;;;;14.63;3.17;;;13.90;99.90;;;;;;5054374;28;20045;-54
2022/10/07 09:09:34;;;;;;;11.85;2.50;;;14.00;99.90;;;;;;5069487;28;20032;-55
2022/10/07 09:12:03;;;;;;;11.15;3.03;;;14.00;99.90;;;;;;5068022;28;20539;-54
2022/10/07 09:14:32;;;;;;;18.15;2.72;;;14.00;99.90;;;;;;5067570;28;20033;-55
2022/10/07 09:17:07;;;;;;;15.05;2.95;;;14.00;99.90;;;;;;5058765;28;20516;-55
2022/10/07 09:19:38;;;;;;;12.27;2.45;;;14.00;99.90;;;;;;5056108;28;20139;-53
2022/10/07 09:22:29;;;;;;;10.50;2.88;;;14.00;99.90;;;;;;5056117;28;20051;-52
2022/10/07 09:25:21;;;;;;;10.45;2.55;;;14.10;99.90;;;;;;5056241;28;20044;-53
2022/10/07 09:27:50;;;;;;;13.98;2.33;;;14.20;99.90;;;;;;5062899;28;20178;-51
2022/10/07 09:30:16;;;;;;;11.82;2.47;;;14.40;99.90;;;;;;5066397;28;20040;-53
2022/10/07 09:32:44;;;;;;;11.45;2.08;;;14.50;99.90;;;;;;5071641;28;20032;-54
2022/10/07 09:35:16;;;;;;;13.13;2.03;;;14.60;99.90;;;;;;5054371;28;20048;-55
2022/10/07 09:37:57;;;;;;;10.75;2.10;;;14.70;99.90;;;;;;5091230;28;20039;-53
2022/10/07 09:40:34;;;;;;;12.68;2.15;;;14.70;99.90;;;;;;5072670;28;20040;-52
2022/10/07 09:43:01;;;;;;;21.27;2.58;;;14.90;99.90;;;;;;5054193;28;20041;-52
2022/10/07 09:45:30;;;;;;;11.98;2.55;;;14.90;99.90;;;;;;5059641;28;20040;-53
2022/10/07 09:48:06;;;;;;;12.93;2.42;;;15.00;99.90;;;;;;5059598;28;20044;-52
2022/10/07 09:50:37;;;;;;;13.18;2.25;;;15.10;99.90;;;;;;5054226;28;20065;-55
2022/10/07 09:53:14;;;;;;;13.70;2.50;;;15.30;99.90;;;;;;5065239;28;20688;-52
2022/10/07 09:55:42;;;;;;;14.55;2.97;;;15.40;99.90;;;;;;5059630;28;20055;-52
2022/10/07 09:58:28;;;;;;;10.48;1.95;;;15.50;99.90;;;;;;5064737;28;20050;-54
2022/10/07 10:00:59;;;;;;;8.50;2.05;;;15.60;99.90;;;;;;5055477;28;20067;-52
2022/10/07 10:03:36;;;;;;;11.02;2.33;;;15.70;99.90;;;;;;5056305;28;20029;-52
2022/10/07 10:06:01;;;;;;;;;;;15.70;99.90;;;;;;5068912;28;20521;-52
2022/10/07 10:08:32;;;;;;;14.57;2.65;;;15.80;99.90;;;;;;5065390;28;19923;-53
2022/10/07 10:11:22;;;;;;;15.32;2.05;;;15.90;99.90;;;;;;5056069;28;20439;-54
2022/10/07 10:13:50;;;;;;;14.20;2.25;;;15.90;99.90;;;;;;5063348;28;20040;-51
2022/10/07 10:16:27;;;;;;;14.88;2.60;;;16.00;99.90;;;;;;5050432;28;20056;-51
2022/10/07 10:19:01;;;;;;;11.85;2.17;;;16.10;99.90;;;;;;5047500;28;20450;-52
2022/10/07 10:21:36;;;;;;;11.68;2.40;;;16.10;99.90;;;;;;5065413;28;20068;-53
2022/10/07 10:24:05;;;;;;;10.43;2.03;;;16.20;99.90;;;;;;5067061;28;20036;-52
2022/10/07 10:27:02;;;;;;;13.02;1.58;;;16.30;99.90;;;;;;5053081;28;20040;-49
2022/10/07 10:29:40;;;;;;;9.67;1.03;;;16.40;99.90;;;;;;5052592;28;20421;-51
2022/10/07 10:32:19;;;;;;;13.32;2.05;;;16.50;99.90;;;;;;5049739;28;20319;-51
2022/10/07 10:35:20;;;;;;;11.82;1.65;;;16.60;99.90;;;;;;5054172;28;20033;-52
2022/10/07 10:37:57;;;;;;;10.15;1.48;;;16.60;99.90;;;;;;5042839;28;20055;-52
2022/10/07 10:41:03;;;;;;;16.83;2.38;;;16.70;99.90;;;;;;5051547;28;20465;-55
2022/10/07 10:43:40;;;;;;;10.60;1.65;;;16.80;99.90;;;;;;5044971;28;20052;-54
2022/10/07 10:46:48;;;;;;;9.52;1.50;;;17.00;99.90;;;;;;5045535;28;20045;-54
2022/10/07 10:49:27;;;;;;;;;;;17.20;99.90;;;;;;5042762;28;20098;-52
2022/10/07 10:52:08;;;;;;;9.80;1.40;;;17.10;99.90;;;;;;5048099;28;19917;-54
2022/10/07 10:55:11;;;;;;;12.43;1.23;;;17.30;99.90;;;;;;5045214;28;20102;-53
2022/10/07 10:57:56;;;;;;;12.73;1.55;;;17.30;99.90;;;;;;5035784;28;20053;-51
2022/10/07 11:00:22;;;;;;;9.70;1.52;;;17.30;99.90;;;;;;5046122;28;20693;-55
2022/10/07 11:03:02;;;;;;;13.50;2.15;;;17.30;99.90;;;;;;5048890;28;20682;-54
2022/10/07 11:05:37;;;;;;;11.82;2.20;;;17.40;99.90;;;;;;5048784;28;20040;-51
2022/10/07 11:08:18;;;;;;;15.45;1.60;;;17.50;99.90;;;;;;5047018;28;20393;-53
2022/10/07 11:10:54;;;;;;;11.93;2.03;;;17.40;99.90;;;;;;5049031;28;20032;-56
2022/10/07 11:13:49;;;;;;;9.75;1.73;;;17.50;99.90;;;;;;5046711;28;20428;-54
2022/10/07 11:16:26;;;;;;;14.02;2.33;;;17.50;99.90;;;;;;5048946;28;20051;-54
2022/10/07 11:19:00;;;;;;;6.55;0.95;;;17.50;99.90;;;;;;5048587;28;20333;-54
2022/10/07 11:21:36;;;;;;;9.65;1.60;;;17.50;99.90;;;;;;5055909;28;20040;-54
2022/10/07 11:24:16;;;;;;;9.32;1.40;;;17.50;99.90;;;;;;5049672;28;20040;-53
2022/10/07 11:27:03;;;;;;;13.65;2.13;;;17.40;99.90;;;;;;5052782;28;20033;-53
2022/10/07 11:29:47;;;;;;;13.83;3.10;;;17.40;99.90;;;;;;5049693;28;20119;-51
2022/10/07 11:32:34;;;;;;;12.43;1.65;;;17.40;99.90;;;;;;5048804;28;20459;-53
2022/10/07 11:35:24;;;;;;;10.50;1.75;;;17.50;99.90;;;;;;5051771;28;20568;-54
2022/10/07 11:38:08;;;;;;;10.73;1.52;;;17.50;99.90;;;;;;5048350;28;20125;-54
2022/10/07 11:40:39;;;;;;;10.57;1.27;;;17.50;99.90;;;;;;5049458;28;20079;-54
2022/10/07 11:43:12;;;;;;;18.40;2.53;;;17.50;99.90;;;;;;5048106;28;20044;-54
2022/10/07 11:45:51;;;;;;;9.07;1.65;;;17.40;99.90;;;;;;5056664;28;20040;-52
2022/10/07 11:48:27;;;;;;;15.77;1.90;;;17.30;99.90;;;;;;5055354;28;20045;-52
2022/10/07 11:51:04;;;;;;;;;;;17.30;99.90;;;;;;5051765;28;20498;-54
2022/10/07 11:53:34;;;;;;;8.75;1.13;;;17.30;99.90;;;;;;5049248;28;19916;-54
2022/10/07 11:56:01;;;;;;;16.88;2.05;;;17.30;99.90;;;;;;5053096;28;20102;-51
2022/10/07 11:58:36;;;;;;;16.35;2.15;;;17.40;99.90;;;;;;5049097;28;20206;-51
2022/10/07 12:01:24;;;;;;;14.48;1.88;;;17.50;99.90;;;;;;5048426;28;20044;-54
2022/10/07 12:04:14;;;;;;;10.52;1.42;;;17.60;99.90;;;;;;5048047;28;20409;-54
2022/10/07 12:07:18;;;;;;;11.27;1.25;;;17.60;99.90;;;;;;5051135;28;20287;-55
2022/10/07 12:10:02;;;;;;;13.38;1.95;;;17.80;99.90;;;;;;5049114;28;20478;-54
2022/10/07 12:12:43;;;;;;;12.48;2.22;;;17.80;99.90;;;;;;5048850;28;20064;-55
2022/10/07 12:15:35;;;;;;;14.13;1.98;;;17.90;99.90;;;;;;5047485;28;20143;-54
2022/10/07 12:18:03;;;;;;;10.45;1.73;;;18.00;99.90;;;;;;5048931;28;20045;-55
2022/10/07 12:20:32;;;;;;;9.88;1.45;;;18.10;99.90;;;;;;5051948;28;20086;-53
2022/10/07 12:23:24;;;;;;;11.25;1.95;;;18.10;99.90;;;;;;5076258;28;20040;-54
2022/10/07 12:26:19;;;;;;;14.35;1.42;;;18.10;99.30;;;;;;5058166;28;20412;-55
2022/10/07 12:28:47;;;;;;;9.07;1.30;;;18.00;99.50;;;;;;5048051;28;20525;-53
2022/10/07 12:31:15;;;;;;;9.60;1.70;;;17.90;99.50;;;;;;5048238;28;20045;-54
2022/10/07 12:33:44;;;;;;;7.80;1.63;;;18.00;99.80;;;;;;5049102;28;20055;-55
2022/10/07 12:36:22;;;;;;;16.23;2.42;;;18.00;99.90;;;;;;5048773;28;20493;-52
2022/10/07 12:38:59;;;;;;;11.95;1.70;;;18.00;99.60;;;;;;5049985;28;20047;-54
2022/10/07 12:41:44;;;;;;;11.02;1.75;;;18.10;99.90;;;;;;5049930;28;20480;-54
2022/10/07 12:44:22;;;;;;;7.47;0.85;;;18.10;99.40;;;;;;5046928;28;20033;-54
2022/10/07 12:46:58;;;;;;;9.30;1.45;;;18.00;99.10;;;;;;5048364;28;20037;-55
2022/10/07 12:49:38;;;;;;;9.13;1.20;;;17.90;98.90;;;;;;5050491;28;20076;-53
2022/10/07 12:52:11;;;;;;;8.43;1.60;;;17.80;99.00;;;;;;5046827;28;20676;-51
2022/10/07 12:54:46;;;;;;;8.00;1.10;;;17.70;99.40;;;;;;5046223;28;20087;-53
2022/10/07 12:57:18;;;;;;;9.02;1.65;;;17.60;99.10;;;;;;5047270;28;20037;-53
2022/10/07 12:59:50;;;;;;;8.38;1.20;;;17.50;99.10;;;;;;5047218;28;20047;-54
2022/10/07 13:02:52;;;;;;;11.73;1.95;;;17.40;99.00;;;;;;5045949;28;20647;-55
2022/10/07 13:05:49;;;;;;;9.40;1.33;;;17.40;99.10;;;;;;5048703;28;20144;-53
2022/10/07 13:08:24;;;;;;;12.50;1.23;;;17.40;99.30;;;;;;5047896;28;20037;-54
2022/10/07 13:11:14;;;;;;;6.20;0.85;;;17.40;99.30;;;;;;5050207;28;20656;-55
2022/10/07 13:13:59;;;;;;;8.85;0.90;;;17.50;99.20;;;;;;5062816;28;20101;-53
2022/10/07 13:16:55;;;;;;;10.45;1.35;;;17.60;99.30;;;;;;5053524;28;20037;-54